Time;durP1;ratioP1;P1;durP2;ratioP2;P2;SDS_P1;SDS_P2;PMS_P1;PMS_P2;Temp;Humidity;BMP_temperature;BMP_pressure;BME280_temperature;BME280_humidity;BME280_pressure;Samples;Min_cycle;Max_cycle;Signal;HPM_P1;HPM_P2
2023/09/03 00:03:16;;;;;;;5.15;3.75;;;16.30;99.90;;;17.03;100.00;98580.84;10321905;28;20231;-80
2023/09/03 00:08:20;;;;;;;4.97;4.28;;;16.20;99.90;;;17.05;100.00;98579.22;10313203;28;20227;-79
2023/09/03 00:13:25;;;;;;;5.32;3.88;;;16.20;99.90;;;17.05;100.00;98573.16;10317082;28;20740;-81
2023/09/03 00:18:28;;;;;;;4.65;4.03;;;16.20;99.90;;;17.01;100.00;98579.03;10312812;28;20234;-81
2023/09/03 00:23:31;;;;;;;4.15;3.78;;;16.10;99.90;;;17.01;100.00;98573.84;10313028;28;20227;-80
2023/09/03 00:28:36;;;;;;;5.47;3.70;;;16.10;99.90;;;16.94;100.00;98570.13;10316095;28;20227;-80
2023/09/03 00:33:39;;;;;;;4.07;3.63;;;16.10;99.90;;;16.95;100.00;98577.06;10314192;28;20224;-81
2023/09/03 00:38:43;;;;;;;6.55;3.60;;;16.10;99.90;;;16.94;100.00;98570.13;10315873;28;20740;-81
2023/09/03 00:43:47;;;;;;;4.30;3.47;;;16.10;99.90;;;16.89;100.00;98579.38;10312234;28;20274;-80
2023/09/03 00:48:51;;;;;;;3.70;3.50;;;16.00;99.90;;;16.84;100.00;98581.75;10317545;28;20223;-80
2023/09/03 00:53:57;;;;;;;4.45;3.85;;;16.00;99.90;;;16.85;100.00;98582.63;10317211;28;20234;-81
2023/09/03 00:59:02;;;;;;;5.63;4.10;;;16.00;99.90;;;16.83;100.00;98581.69;10315220;28;20646;-81
2023/09/03 01:04:06;;;;;;;3.92;3.55;;;15.90;99.90;;;16.78;100.00;98572.84;10312830;28;20235;-80
2023/09/03 01:09:10;;;;;;;4.13;3.70;;;15.90;99.90;;;16.75;100.00;98583.00;10317367;28;20231;-80
2023/09/03 01:14:26;;;;;;;4.05;3.38;;;15.90;99.90;;;16.66;100.00;98586.94;10314673;28;20237;-79
2023/09/03 01:19:53;;;;;;;6.05;4.32;;;15.80;99.90;;;16.53;100.00;98594.94;10311872;28;20234;-80
2023/09/03 01:25:13;;;;;;;4.15;3.60;;;15.70;99.90;;;16.55;100.00;98606.22;10313335;28;20224;-80
2023/09/03 01:30:19;;;;;;;4.10;3.20;;;15.70;99.90;;;16.67;100.00;98611.06;10310330;28;20245;-80
2023/09/03 01:35:23;;;;;;;3.78;3.58;;;15.70;99.90;;;16.50;100.00;98612.88;10312694;28;20626;-79
2023/09/03 01:40:27;;;;;;;4.38;3.95;;;15.50;99.90;;;16.35;100.00;98607.00;10312788;28;20931;-80
2023/09/03 01:45:40;;;;;;;4.60;3.53;;;15.40;99.90;;;16.30;100.00;98614.53;10315366;28;20231;-79
2023/09/03 01:50:50;;;;;;;5.07;3.63;;;15.50;99.90;;;16.25;100.00;98618.56;10312901;28;20241;-79
2023/09/03 01:55:58;;;;;;;7.35;3.63;;;15.40;99.90;;;16.27;100.00;98622.13;10314970;28;20227;-79
2023/09/03 02:01:04;;;;;;;5.55;3.90;;;15.50;99.90;;;16.30;100.00;98631.72;10315238;28;20226;-80
2023/09/03 02:06:07;;;;;;;4.97;3.80;;;15.50;99.90;;;16.34;100.00;98629.34;10313017;28;20219;-80
2023/09/03 02:11:10;;;;;;;3.63;3.33;;;15.50;99.90;;;16.37;100.00;98636.34;10311849;28;20223;-80
2023/09/03 02:16:15;;;;;;;3.92;3.20;;;15.50;99.90;;;16.27;100.00;98640.19;10315559;28;20227;-80
2023/09/03 02:21:18;;;;;;;3.92;3.53;;;15.40;99.90;;;16.25;100.00;98630.59;10306987;28;20231;-81
2023/09/03 02:26:21;;;;;;;5.15;3.80;;;15.40;99.90;;;16.13;100.00;98636.06;10310117;28;20227;-81
2023/09/03 02:31:26;;;;;;;4.95;3.70;;;15.30;99.90;;;16.15;100.00;98639.59;10313397;28;20784;-82
2023/09/03 02:36:30;;;;;;;5.70;3.38;;;15.30;99.90;;;16.15;100.00;98637.03;10316616;28;20239;-80
2023/09/03 02:41:34;;;;;;;5.82;3.50;;;15.30;99.90;;;16.16;100.00;98637.09;10317662;28;20254;-80
2023/09/03 02:46:39;;;;;;;4.15;3.85;;;15.30;99.90;;;15.95;100.00;98648.97;10315098;28;20281;-80
2023/09/03 02:51:42;;;;;;;4.75;3.63;;;15.20;99.90;;;16.01;100.00;98656.13;10317716;28;20235;-80
2023/09/03 02:56:45;;;;;;;3.95;3.65;;;15.20;99.90;;;16.02;100.00;98651.00;10315766;28;20238;-80
2023/09/03 03:01:50;;;;;;;4.05;3.50;;;15.20;99.90;;;16.02;100.00;98656.16;10320714;28;20258;-81
2023/09/03 03:06:53;;;;;;;4.43;4.00;;;15.20;99.90;;;15.99;100.00;98658.59;10314648;28;20307;-80
2023/09/03 03:11:56;;;;;;;4.05;3.72;;;15.10;99.90;;;15.91;100.00;98662.50;10319299;28;20231;-81
2023/09/03 03:17:01;;;;;;;6.30;4.38;;;15.10;99.90;;;15.82;100.00;98659.47;10315043;28;20795;-79
2023/09/03 03:22:04;;;;;;;4.43;4.03;;;15.00;99.90;;;15.79;100.00;98655.06;10309823;28;20228;-81
2023/09/03 03:27:07;;;;;;;3.67;3.40;;;15.00;99.90;;;15.80;100.00;98655.97;10318898;28;20790;-79
2023/09/03 03:32:12;;;;;;;4.38;3.97;;;15.00;99.90;;;15.77;100.00;98657.56;10313850;28;20245;-79
2023/09/03 03:37:15;;;;;;;5.82;4.20;;;15.00;99.90;;;15.65;100.00;98663.75;10309474;28;20230;-81
2023/09/03 03:42:18;;;;;;;5.85;4.15;;;14.90;99.90;;;15.75;100.00;98672.06;10310201;28;20245;-81
2023/09/03 03:47:23;;;;;;;5.00;3.30;;;15.00;99.90;;;15.82;100.00;98687.84;10306198;28;20623;-82
2023/09/03 03:52:26;;;;;;;4.43;3.58;;;14.90;99.90;;;15.80;100.00;98674.88;10313186;28;20242;-79
2023/09/03 03:57:29;;;;;;;4.20;3.90;;;14.90;99.90;;;15.76;100.00;98678.97;10314657;28;20488;-81
2023/09/03 04:02:34;;;;;;;6.05;3.80;;;14.90;99.90;;;15.54;100.00;98687.31;10309853;28;21699;-79
2023/09/03 04:07:37;;;;;;;4.30;4.00;;;14.70;99.90;;;15.47;100.00;98698.09;10316300;28;20225;-80
2023/09/03 04:12:40;;;;;;;3.88;3.53;;;14.70;99.90;;;15.52;100.00;98706.06;10315528;28;20234;-80
2023/09/03 04:17:45;;;;;;;4.18;3.60;;;14.80;99.90;;;15.68;100.00;98711.25;10312337;28;20227;-81
2023/09/03 04:22:53;;;;;;;3.95;3.53;;;14.90;99.90;;;15.71;100.00;98707.94;10312683;28;20231;-80
2023/09/03 04:27:56;;;;;;;3.95;3.55;;;15.00;99.90;;;15.82;100.00;98718.78;10313977;28;20582;-80
2023/09/03 04:33:01;;;;;;;4.32;4.03;;;15.00;99.90;;;15.90;100.00;98712.31;10311954;28;20223;-80
2023/09/03 04:38:05;;;;;;;6.82;3.97;;;15.10;99.90;;;15.80;100.00;98712.69;10311795;28;20289;-80
2023/09/03 04:43:08;;;;;;;4.28;3.92;;;15.00;99.90;;;15.85;100.00;98711.19;10315819;28;20583;-80
2023/09/03 04:48:13;;;;;;;3.95;3.50;;;15.00;99.90;;;15.97;100.00;98716.97;10312860;28;20246;-81
2023/09/03 04:53:16;;;;;;;3.85;3.45;;;15.00;99.90;;;15.87;100.00;98725.06;10310262;28;20245;-80
2023/09/03 04:58:19;;;;;;;4.00;3.70;;;15.00;99.90;;;15.77;100.00;98728.88;10310046;28;20314;-81
2023/09/03 05:03:24;;;;;;;4.95;3.80;;;15.00;99.90;;;15.83;100.00;98738.59;10310063;28;20344;-80
2023/09/03 05:08:28;;;;;;;4.00;3.55;;;15.00;99.90;;;15.86;100.00;98743.91;10310762;28;20262;-79
2023/09/03 05:13:31;;;;;;;5.07;3.35;;;15.00;99.90;;;15.94;100.00;98763.25;10311227;28;20735;-80
2023/09/03 05:18:35;;;;;;;4.60;4.00;;;15.10;99.90;;;16.05;100.00;98767.22;10309802;28;20234;-80
2023/09/03 05:23:39;;;;;;;3.90;3.45;;;15.20;99.90;;;16.10;100.00;98775.19;10308500;28;20231;-81
2023/09/03 05:28:42;;;;;;;3.83;3.53;;;15.20;99.90;;;16.11;100.00;98772.72;10306964;28;20728;-80
2023/09/03 05:33:47;;;;;;;4.65;4.20;;;15.20;99.90;;;16.18;100.00;98781.63;10309759;28;20227;-81
2023/09/03 05:38:50;;;;;;;4.50;3.92;;;15.30;99.90;;;16.26;100.00;98776.84;10308740;28;20374;-81
2023/09/03 05:43:53;;;;;;;4.43;4.00;;;15.30;99.90;;;16.25;100.00;98762.16;10311992;28;20229;-80
2023/09/03 05:48:58;;;;;;;5.40;4.32;;;15.40;99.90;;;16.51;100.00;98753.09;10305843;28;20234;-82
2023/09/03 05:54:01;;;;;;;4.63;4.00;;;15.70;99.90;;;16.78;100.00;98757.03;10309740;28;20239;-81
2023/09/03 05:59:05;;;;;;;4.30;3.80;;;16.00;99.90;;;16.93;100.00;98759.47;10313169;28;20234;-81
2023/09/03 06:04:14;;;;;;;4.47;4.05;;;16.00;99.90;;;17.17;100.00;98753.63;10306385;28;20223;-83
2023/09/03 06:09:18;;;;;;;3.95;3.50;;;16.30;99.90;;;17.32;100.00;98770.75;10310560;28;20322;-82
2023/09/03 06:14:22;;;;;;;4.65;3.58;;;16.40;99.90;;;17.36;100.00;98771.75;10316308;28;20342;-82
2023/09/03 06:19:26;;;;;;;3.85;3.47;;;16.50;99.90;;;17.59;100.00;98761.56;10317841;28;21035;-80
2023/09/03 06:24:29;;;;;;;3.53;3.22;;;16.70;99.90;;;17.89;100.00;98765.50;10306732;28;20233;-78
2023/09/03 06:29:33;;;;;;;3.83;3.33;;;16.90;99.90;;;18.01;100.00;98773.78;10299758;28;20229;-79
2023/09/03 06:34:38;;;;;;;5.15;3.55;;;17.00;99.90;;;18.34;100.00;98790.66;10306301;28;20227;-78
2023/09/03 06:39:41;;;;;;;5.18;3.67;;;17.30;99.90;;;18.78;99.52;98783.84;10308200;28;20234;-79
2023/09/03 06:44:45;;;;;;;4.88;3.70;;;17.60;99.90;;;19.02;96.39;98802.06;10307315;28;20230;-79
2023/09/03 06:49:51;;;;;;;4.05;3.63;;;17.80;99.90;;;19.00;95.80;98812.38;10307021;28;20250;-79
2023/09/03 06:54:54;;;;;;;4.55;4.15;;;17.70;99.90;;;19.08;95.63;98821.31;10308122;28;20230;-78
2023/09/03 06:59:57;;;;;;;3.85;3.55;;;17.80;99.90;;;19.22;95.03;98821.84;10309076;28;20236;-78
2023/09/03 07:05:02;;;;;;;4.05;3.47;;;18.00;99.90;;;19.30;94.31;98830.81;10306110;28;20229;-78
2023/09/03 07:10:06;;;;;;;4.22;3.75;;;18.10;99.90;;;19.55;94.16;98839.53;10301092;28;20249;-78
2023/09/03 07:15:10;;;;;;;3.70;3.35;;;18.30;99.90;;;19.68;93.86;98846.06;10303609;28;20353;-79
2023/09/03 07:20:15;;;;;;;3.63;3.33;;;18.50;99.90;;;19.80;94.07;98838.72;10299557;28;20716;-77
2023/09/03 07:25:21;;;;;;;3.85;3.50;;;18.60;99.90;;;20.08;92.38;98853.56;10317005;28;20609;-78
2023/09/03 07:30:24;;;;;;;4.90;4.30;;;18.80;99.90;;;20.23;90.82;98856.72;10315922;28;20235;-83
2023/09/03 07:35:32;;;;;;;4.70;4.30;;;19.00;99.90;;;20.68;89.46;98858.25;10321807;28;20614;-78
2023/09/03 07:40:39;;;;;;;4.50;4.10;;;19.50;99.90;;;20.91;88.49;98866.81;10321945;28;21231;-78
2023/09/03 07:45:42;;;;;;;4.50;4.10;;;19.80;99.90;;;21.32;87.80;98864.66;10318136;28;20227;-79
2023/09/03 07:50:47;;;;;;;4.55;4.10;;;20.20;99.90;;;21.56;85.08;98860.19;10332457;28;20231;-79
2023/09/03 07:55:50;;;;;;;4.82;3.70;;;20.50;99.90;;;22.10;83.17;98860.84;10332338;28;20246;-79
2023/09/03 08:00:54;;;;;;;4.60;4.10;;;21.00;99.90;;;22.79;78.82;98866.16;10327280;28;20233;-79
2023/09/03 08:06:00;;;;;;;3.90;3.60;;;21.90;99.90;;;23.12;78.73;98873.06;10322490;28;20230;-80
2023/09/03 08:11:03;;;;;;;4.25;3.85;;;22.10;99.90;;;23.36;76.81;98876.25;10322959;28;20273;-79
2023/09/03 08:16:06;;;;;;;4.25;3.83;;;22.20;99.90;;;23.59;76.16;98886.31;10307157;28;20281;-81
2023/09/03 08:21:11;;;;;;;4.15;3.75;;;22.60;99.90;;;23.89;75.87;98873.03;10318781;28;20234;-78
2023/09/03 08:26:14;;;;;;;5.03;3.85;;;22.80;99.90;;;24.09;74.06;98877.78;10315689;28;20222;-79
2023/09/03 08:31:17;;;;;;;4.65;4.20;;;22.90;99.90;;;24.37;71.78;98880.06;10339024;28;20510;-78
2023/09/03 08:36:24;;;;;;;4.10;3.78;;;23.40;99.90;;;24.56;72.85;98880.47;10318697;28;20695;-78
2023/09/03 08:41:28;;;;;;;4.25;3.85;;;23.60;99.90;;;24.88;71.49;98883.63;10316420;28;20230;-79
2023/09/03 08:46:33;;;;;;;3.85;3.55;;;24.00;99.90;;;25.15;70.86;98881.47;10318688;28;20235;-79
2023/09/03 08:51:37;;;;;;;4.03;3.63;;;24.20;99.90;;;25.55;68.27;98879.44;10333715;28;20321;-79
2023/09/03 08:56:41;;;;;;;3.92;3.63;;;24.80;99.90;;;25.77;66.85;98880.59;10329344;28;20255;-80
2023/09/03 09:01:47;;;;;;;3.53;3.20;;;24.80;99.90;;;25.89;67.05;98895.59;10312607;28;20235;-78
2023/09/03 09:06:52;;;;;;;3.25;2.95;;;24.90;99.90;;;25.91;66.22;98883.41;10315255;28;20255;-78
2023/09/03 09:12:02;;;;;;;3.88;3.47;;;24.90;99.90;;;26.18;64.45;98881.97;10304636;28;20231;-78
2023/09/03 09:17:12;;;;;;;3.60;3.10;;;24.90;99.90;;;26.15;65.01;98887.19;10320199;28;20240;-79
2023/09/03 09:22:16;;;;;;;3.25;2.90;;;24.90;99.90;;;26.18;65.42;98887.22;10316421;28;20313;-80
2023/09/03 09:27:23;;;;;;;3.58;3.25;;;25.20;99.90;;;26.26;64.85;98896.06;10329776;28;20722;-79
2023/09/03 09:32:26;;;;;;;3.28;2.97;;;25.20;99.90;;;26.54;62.67;98902.50;10310125;28;20333;-79
2023/09/03 09:37:39;;;;;;;3.72;2.85;;;25.60;99.90;;;26.36;62.14;98905.78;10311943;28;20245;-79
2023/09/03 09:42:53;;;;;;;3.10;2.80;;;25.50;99.90;;;26.48;63.04;98903.28;10331438;28;20237;-79
2023/09/03 09:48:05;;;;;;;2.63;2.42;;;25.50;99.90;;;26.74;60.42;98900.06;10331560;28;20301;-80
2023/09/03 09:53:23;;;;;;;2.83;2.63;;;25.90;99.90;;;26.78;62.96;98891.34;10326032;28;20219;-80
2023/09/03 09:58:38;;;;;;;3.00;2.70;;;25.90;99.90;;;27.04;61.87;98894.22;10332547;28;20316;-78
2023/09/03 10:03:42;;;;;;;3.92;2.40;;;26.10;99.90;;;27.04;61.05;98901.19;10322772;28;20229;-80
2023/09/03 10:08:49;;;;;;;2.58;2.38;;;26.10;99.90;;;27.10;59.27;98894.25;10320332;28;20227;-80
2023/09/03 10:13:56;;;;;;;2.53;2.33;;;26.10;99.90;;;27.35;58.57;98890.06;10324602;28;20219;-79
2023/09/03 10:19:03;;;;;;;2.67;2.30;;;26.30;99.90;;;27.23;57.64;98882.13;10328445;28;20257;-79
2023/09/03 10:24:09;;;;;;;2.40;2.10;;;26.40;99.90;;;27.22;57.10;98872.50;10329266;28;20313;-80
2023/09/03 10:29:14;;;;;;;2.40;2.30;;;26.30;99.90;;;27.42;57.58;98885.75;10329780;28;20257;-78
2023/09/03 10:34:18;;;;;;;2.53;2.33;;;26.60;99.90;;;27.56;56.51;98872.72;10330046;28;20310;-79
2023/09/03 10:39:25;;;;;;;2.20;1.92;;;26.80;99.90;;;27.54;58.02;98884.94;10331597;28;20230;-78
2023/09/03 10:44:32;;;;;;;2.38;2.10;;;26.80;99.90;;;27.34;57.76;98880.44;10330518;28;20290;-78
2023/09/03 10:49:42;;;;;;;2.15;2.00;;;26.30;99.90;;;27.31;57.66;98877.81;10329854;28;20226;-79
2023/09/03 10:54:47;;;;;;;2.05;1.90;;;26.40;99.90;;;27.24;57.35;98880.38;10328066;28;20233;-80
2023/09/03 11:00:15;;;;;;;1.67;1.45;;;26.30;99.90;;;27.05;53.41;98880.22;10335739;28;20231;-79
2023/09/03 11:05:23;;;;;;;1.80;1.70;;;26.00;99.90;;;26.95;55.52;98878.38;10326670;28;20249;-79
2023/09/03 11:10:47;;;;;;;1.60;1.50;;;26.00;99.90;;;27.13;54.90;98882.91;10330098;28;20235;-79
2023/09/03 11:15:55;;;;;;;4.00;1.73;;;26.20;99.90;;;27.13;55.71;98882.91;10318437;28;20630;-78
2023/09/03 11:20:59;;;;;;;1.60;1.50;;;26.30;99.90;;;27.42;51.71;98883.13;10308052;28;20234;-79
2023/09/03 11:26:05;;;;;;;1.70;1.60;;;26.50;99.90;;;27.50;52.14;98877.91;10306052;28;20231;-77
2023/09/03 11:31:09;;;;;;;1.63;1.33;;;26.50;99.90;;;27.50;53.61;98877.91;10301334;28;20235;-77
2023/09/03 11:36:12;;;;;;;1.48;1.38;;;26.50;99.90;;;27.56;53.51;98867.47;10309612;28;20254;-77
2023/09/03 11:41:19;;;;;;;1.48;1.20;;;26.60;99.90;;;27.30;51.77;98873.44;10301266;28;20901;-77
2023/09/03 11:46:22;;;;;;;1.40;1.30;;;26.50;99.90;;;27.43;52.28;98877.00;10311504;28;22639;-78
2023/09/03 11:51:27;;;;;;;1.60;1.35;;;26.60;99.90;;;27.44;51.25;98873.50;10321837;28;20255;-78
2023/09/03 11:56:33;;;;;;;1.52;1.40;;;26.50;99.90;;;27.13;51.13;98873.28;10330093;28;20253;-78
2023/09/03 12:01:36;;;;;;;1.65;1.50;;;26.40;99.50;;;27.31;51.10;98869.94;10314183;28;20245;-78
2023/09/03 12:06:39;;;;;;;1.30;1.30;;;26.40;99.60;;;27.28;51.00;98875.16;10310071;28;20902;-78
2023/09/03 12:11:44;;;;;;;2.85;1.40;;;26.30;99.70;;;27.29;51.62;98873.41;10308164;28;20725;-79
2023/09/03 12:16:48;;;;;;;1.58;1.30;;;26.30;99.90;;;27.31;50.85;98882.19;10319833;28;20317;-78
2023/09/03 12:21:54;;;;;;;1.23;1.23;;;26.40;99.60;;;27.18;53.14;98884.75;10315699;28;20230;-78
2023/09/03 12:27:03;;;;;;;1.77;1.35;;;26.30;99.90;;;27.06;51.29;98886.34;10311982;28;20222;-79
2023/09/03 12:32:10;;;;;;;1.33;1.23;;;26.00;99.80;;;26.99;49.24;98874.06;10316164;28;20243;-78
2023/09/03 12:37:13;;;;;;;1.77;1.55;;;26.00;98.10;;;27.10;50.25;98869.72;10305661;28;20227;-78
2023/09/03 12:42:18;;;;;;;1.73;1.20;;;26.10;99.20;;;27.29;49.37;98858.53;10307819;28;20241;-78
2023/09/03 12:47:22;;;;;;;1.60;1.50;;;26.20;98.80;;;27.54;49.26;98848.19;10304237;28;20253;-80
2023/09/03 12:52:25;;;;;;;1.58;1.48;;;26.50;98.30;;;27.40;50.08;98856.84;10310225;28;20235;-79
2023/09/03 12:57:30;;;;;;;1.60;1.50;;;26.50;98.80;;;27.03;50.50;98860.06;10289283;28;20226;-78
2023/09/03 13:02:33;;;;;;;1.55;1.33;;;26.20;98.90;;;26.98;50.79;98852.16;10299602;28;20231;-78
2023/09/03 13:07:37;;;;;;;1.60;1.50;;;26.00;99.60;;;26.87;50.15;98854.72;10308561;28;20293;-79
2023/09/03 13:12:41;;;;;;;1.88;1.40;;;25.90;98.60;;;27.02;49.22;98858.31;10310329;28;20242;-78
2023/09/03 13:17:46;;;;;;;1.45;1.20;;;26.10;98.10;;;26.99;49.47;98867.06;10308903;28;20230;-78
2023/09/03 13:22:50;;;;;;;1.10;1.10;;;26.00;98.30;;;27.11;47.46;98859.25;10310707;28;20299;-78
2023/09/03 13:27:54;;;;;;;1.38;1.27;;;26.10;96.60;;;27.14;49.42;98863.66;10306991;28;20305;-76
2023/09/03 13:32:58;;;;;;;1.70;1.60;;;26.20;98.00;;;27.14;49.98;98858.41;10300575;28;20638;-76
2023/09/03 13:38:03;;;;;;;1.40;1.30;;;26.20;98.40;;;27.31;49.75;98842.78;10303257;28;20912;-79
2023/09/03 13:43:07;;;;;;;1.20;1.20;;;26.30;98.20;;;26.90;49.70;98839.00;10310105;28;20223;-78
2023/09/03 13:48:10;;;;;;;1.58;1.42;;;26.00;98.10;;;26.98;50.89;98853.91;10303857;28;22181;-79
2023/09/03 13:53:14;;;;;;;1.92;1.67;;;26.00;98.70;;;27.01;49.98;98854.78;10290536;28;20241;-80
2023/09/03 13:58:18;;;;;;;1.70;1.60;;;26.10;98.40;;;26.87;51.68;98854.72;10292105;28;20236;-79
2023/09/03 14:03:22;;;;;;;1.58;1.48;;;26.00;99.40;;;26.85;52.07;98850.31;10309639;28;20230;-79
2023/09/03 14:08:26;;;;;;;2.47;2.00;;;26.00;99.50;;;26.98;52.37;98849.53;10303680;28;20234;-78
2023/09/03 14:13:31;;;;;;;1.60;1.50;;;26.00;99.90;;;26.78;51.60;98848.50;10308878;28;20726;-80
2023/09/03 14:18:34;;;;;;;1.30;1.20;;;25.80;99.40;;;26.79;51.80;98840.66;10304480;28;20231;-80
2023/09/03 14:23:37;;;;;;;1.50;1.40;;;25.80;99.50;;;26.86;52.69;98838.94;10312481;28;20238;-79
2023/09/03 14:28:41;;;;;;;1.65;1.45;;;25.80;99.90;;;26.85;53.35;98855.56;10315232;28;20240;-79
2023/09/03 14:33:45;;;;;;;1.60;1.50;;;25.80;99.90;;;26.72;50.91;98854.56;10322057;28;20222;-80
2023/09/03 14:38:48;;;;;;;1.70;1.60;;;25.80;98.70;;;26.82;52.49;98856.41;10322499;28;20226;-79
2023/09/03 14:43:52;;;;;;;1.85;1.60;;;25.90;99.90;;;26.73;53.97;98856.34;10335863;28;20249;-80
2023/09/03 14:48:56;;;;;;;2.05;1.45;;;25.80;99.90;;;26.61;52.44;98841.38;10321433;28;20222;-80
2023/09/03 14:53:59;;;;;;;1.88;1.70;;;25.70;99.90;;;26.60;53.24;98843.97;10328276;28;20322;-79
2023/09/03 14:59:04;;;;;;;1.67;1.27;;;25.70;99.90;;;26.46;52.70;98834.19;10323427;28;20373;-80
2023/09/03 15:04:07;;;;;;;1.98;1.55;;;25.60;99.90;;;26.49;52.83;98839.47;10322856;28;20230;-80
2023/09/03 15:09:10;;;;;;;1.67;1.58;;;25.50;99.90;;;26.09;53.10;98830.34;10319195;28;20719;-79
2023/09/03 15:14:15;;;;;;;2.15;1.90;;;25.30;99.90;;;26.08;55.21;98843.44;10322228;28;20230;-80
2023/09/03 15:19:18;;;;;;;1.83;1.73;;;25.20;99.90;;;26.04;54.44;98843.41;10328631;28;20229;-80
2023/09/03 15:24:25;;;;;;;1.30;1.20;;;25.10;99.90;;;25.96;54.81;98849.44;10323605;28;20241;-80
2023/09/03 15:29:30;;;;;;;1.58;1.48;;;25.00;99.90;;;26.01;55.71;98848.63;10338508;28;20340;-80
2023/09/03 15:34:33;;;;;;;1.55;1.35;;;25.00;99.90;;;25.90;56.38;98847.63;10333748;28;20239;-80
2023/09/03 15:39:36;;;;;;;1.48;1.38;;;25.00;99.90;;;25.89;56.52;98844.97;10336161;28;20234;-80
2023/09/03 15:44:41;;;;;;;1.80;1.70;;;25.00;99.90;;;25.71;56.12;98858.69;10338622;28;20222;-80
2023/09/03 15:49:44;;;;;;;1.80;1.70;;;24.80;99.90;;;25.60;56.91;98856.78;10332865;28;20277;-80
2023/09/03 15:54:47;;;;;;;1.77;1.67;;;24.70;99.90;;;25.48;56.00;98861.88;10335244;28;20673;-79
2023/09/03 15:59:51;;;;;;;1.55;1.45;;;24.70;99.90;;;25.47;56.31;98857.50;10337208;28;20325;-80
2023/09/03 16:04:54;;;;;;;1.80;1.70;;;24.60;99.90;;;25.33;57.05;98872.16;10331125;28;20239;-78
2023/09/03 16:10:00;;;;;;;1.73;1.63;;;24.50;99.90;;;25.32;56.61;98879.09;10340556;28;20284;-79
2023/09/03 16:15:05;;;;;;;1.88;1.77;;;24.50;99.90;;;25.16;57.11;98878.00;10333421;28;20979;-80
2023/09/03 16:20:09;;;;;;;1.67;1.58;;;24.30;99.90;;;24.98;57.98;98872.47;10328827;28;20242;-79
2023/09/03 16:25:12;;;;;;;2.10;1.92;;;24.20;99.90;;;25.05;58.50;98871.69;10334808;28;20301;-80
2023/09/03 16:30:17;;;;;;;2.10;2.00;;;24.20;99.90;;;24.88;58.36;98881.88;10337378;28;20258;-80
2023/09/03 16:35:23;;;;;;;2.22;1.98;;;24.10;99.90;;;24.86;58.85;98878.34;10332862;28;20281;-81
2023/09/03 16:40:26;;;;;;;1.80;1.70;;;24.00;99.90;;;24.80;60.44;98880.88;10336903;28;20314;-80
2023/09/03 16:45:30;;;;;;;1.90;1.80;;;23.90;99.90;;;24.67;61.03;98876.31;10339486;28;20275;-79
2023/09/03 16:50:33;;;;;;;1.90;1.80;;;23.80;99.90;;;24.60;60.47;98875.28;10334231;28;20361;-80
2023/09/03 16:55:38;;;;;;;3.00;1.90;;;23.60;99.90;;;24.53;61.67;98875.19;10329203;28;20723;-79
2023/09/03 17:00:42;;;;;;;2.10;1.63;;;23.60;99.90;;;24.49;62.01;98876.84;10317238;28;20229;-80
2023/09/03 17:05:45;;;;;;;1.60;1.50;;;23.60;99.90;;;24.35;62.46;98878.28;10318216;28;20215;-80
2023/09/03 17:10:49;;;;;;;1.98;1.88;;;23.40;99.90;;;24.25;64.57;98869.41;10315032;28;20223;-81
2023/09/03 17:15:53;;;;;;;2.22;2.08;;;23.30;99.90;;;24.04;68.15;98870.75;10316142;28;20727;-80
2023/09/03 17:20:56;;;;;;;1.90;1.80;;;23.10;99.90;;;23.80;68.60;98872.84;10317019;28;20227;-81
2023/09/03 17:25:59;;;;;;;2.10;1.88;;;22.80;99.90;;;23.57;70.70;98874.94;10321684;28;20223;-81
2023/09/03 17:31:08;;;;;;;2.55;2.28;;;22.60;99.90;;;23.35;70.98;98881.41;10325708;28;20226;-81
2023/09/03 17:36:11;;;;;;;3.90;2.95;;;22.40;99.90;;;23.06;72.04;98893.78;10325495;28;20226;-79
2023/09/03 17:41:14;;;;;;;4.07;3.80;;;22.00;99.90;;;22.79;75.45;98893.97;10328989;28;21311;-79
2023/09/03 17:46:20;;;;;;;2.80;2.60;;;21.80;99.90;;;22.56;77.65;98896.84;10330456;28;20237;-80
2023/09/03 17:51:23;;;;;;;2.72;2.53;;;21.50;99.90;;;22.43;79.50;98889.53;10333842;28;20234;-80
2023/09/03 17:56:27;;;;;;;2.50;2.10;;;21.40;99.90;;;22.28;82.62;98887.41;10330750;28;20247;-78
2023/09/03 18:01:33;;;;;;;2.45;2.25;;;21.30;99.90;;;22.16;84.73;98889.66;10331073;28;20234;-80
2023/09/03 18:06:37;;;;;;;2.17;2.08;;;21.20;99.90;;;22.03;85.88;98898.84;10325248;28;20251;-81
2023/09/03 18:11:40;;;;;;;2.72;2.33;;;21.10;99.90;;;21.91;86.83;98911.50;10324081;28;20250;-79
2023/09/03 18:16:45;;;;;;;2.55;2.42;;;20.90;99.90;;;21.73;88.00;98917.06;10319246;28;20290;-79
2023/09/03 18:21:48;;;;;;;2.40;2.20;;;20.80;99.90;;;21.57;88.62;98919.19;10320765;28;20318;-80
2023/09/03 18:26:52;;;;;;;2.70;2.47;;;20.60;99.90;;;21.37;89.82;98930.69;10323250;28;20742;-80
2023/09/03 18:31:57;;;;;;;2.63;2.28;;;20.40;99.90;;;21.32;90.39;98927.94;10327705;28;20231;-78
2023/09/03 18:37:00;;;;;;;3.17;2.90;;;20.30;99.90;;;20.98;91.20;98932.88;10326463;28;20257;-80
2023/09/03 18:42:04;;;;;;;4.10;3.63;;;20.10;99.90;;;20.87;90.86;98932.53;10320742;28;20359;-79
2023/09/03 18:47:09;;;;;;;5.00;4.50;;;19.90;99.90;;;20.73;90.47;98934.66;10292825;28;20231;-79
2023/09/03 18:52:12;;;;;;;5.57;5.10;;;19.70;99.90;;;20.60;91.38;98943.75;10300818;28;20227;-80
2023/09/03 18:57:15;;;;;;;5.07;4.68;;;19.70;99.90;;;20.55;91.82;98944.44;10304225;28;20231;-78
2023/09/03 19:02:21;;;;;;;3.80;3.60;;;19.60;99.90;;;20.37;92.11;98944.59;10298852;28;20227;-79
2023/09/03 19:07:24;;;;;;;3.63;3.35;;;19.40;99.90;;;20.23;92.34;98952.81;10296278;28;20258;-81
2023/09/03 19:12:28;;;;;;;3.47;3.00;;;19.20;99.90;;;20.06;92.30;98965.97;10299499;28;20257;-80
2023/09/03 19:17:32;;;;;;;3.28;2.85;;;19.10;99.90;;;19.87;93.55;98959.22;10307567;28;20234;-78
2023/09/03 19:22:36;;;;;;;3.22;2.92;;;18.90;99.90;;;19.70;93.43;98964.63;10313726;28;20251;-79
2023/09/03 19:27:42;;;;;;;3.97;3.67;;;18.80;99.90;;;19.59;93.96;98966.75;10300097;28;20759;-78
2023/09/03 19:32:47;;;;;;;3.58;2.72;;;18.70;99.90;;;19.45;94.82;98978.31;10312583;28;20365;-78
2023/09/03 19:37:50;;;;;;;2.85;2.65;;;18.60;99.90;;;19.35;94.69;98971.00;10300760;28;20226;-80
2023/09/03 19:42:53;;;;;;;3.50;2.97;;;18.40;99.90;;;19.09;96.38;98956.97;10306058;28;20713;-80
2023/09/03 19:48:22;;;;;;;3.20;2.97;;;18.30;99.90;;;19.17;96.93;98949.50;10310441;28;20227;-78
2023/09/03 19:53:29;;;;;;;3.38;3.03;;;18.30;99.90;;;19.04;96.93;98942.94;10309437;28;20241;-80
2023/09/03 19:58:33;;;;;;;3.13;2.92;;;18.20;99.90;;;18.85;98.27;98944.75;10302695;28;20397;-79
2023/09/03 20:03:38;;;;;;;3.10;2.90;;;18.00;99.90;;;18.83;97.29;98933.47;10314237;28;20770;-80
2023/09/03 20:08:42;;;;;;;3.72;3.40;;;17.90;99.90;;;18.71;99.08;98927.72;10320837;28;20227;-79
2023/09/03 20:13:45;;;;;;;3.65;3.35;;;17.80;99.90;;;18.69;98.72;98948.38;10318437;28;20235;-79
2023/09/03 20:18:50;;;;;;;4.78;3.80;;;17.80;99.90;;;18.65;98.25;98951.66;10312276;28;20746;-78
2023/09/03 20:23:53;;;;;;;4.57;3.05;;;17.70;99.90;;;18.51;99.65;98944.09;10317178;28;20231;-80
2023/09/03 20:28:56;;;;;;;3.50;3.22;;;17.60;99.90;;;18.40;100.00;98951.44;10311658;28;20227;-79
2023/09/03 20:34:01;;;;;;;3.33;3.10;;;17.50;99.90;;;18.18;100.00;98952.19;10312349;28;20231;-79
2023/09/03 20:39:05;;;;;;;4.03;3.00;;;17.40;99.90;;;18.17;100.00;98953.88;10319315;28;20731;-77
2023/09/03 20:44:08;;;;;;;4.05;3.22;;;17.40;99.90;;;18.09;100.00;98946.59;10318326;28;20712;-79
2023/09/03 20:49:13;;;;;;;5.53;2.90;;;17.30;99.90;;;18.12;100.00;98951.91;10306341;28;20231;-79
2023/09/03 20:54:17;;;;;;;3.25;3.05;;;17.30;99.90;;;18.04;100.00;98942.91;10311057;28;20230;-80
2023/09/03 20:59:21;;;;;;;4.05;3.65;;;17.20;99.90;;;18.06;100.00;98943.88;10312173;28;20307;-80
2023/09/03 21:04:26;;;;;;;4.55;3.13;;;17.20;99.90;;;17.88;100.00;98934.44;10317345;28;22062;-78